Time;durP1;ratioP1;P1;durP2;ratioP2;P2;SDS_P1;SDS_P2;PMS_P1;PMS_P2;Temp;Humidity;BMP_temperature;BMP_pressure;BME280_temperature;BME280_humidity;BME280_pressure;Samples;Min_cycle;Max_cycle;Signal;HPM_P1;HPM_P2
2023/04/11 00:01:28;;;;;;;9.30;1.70;;;8.40;99.90;;;;;;5053582;28;20071;-83
2023/04/11 00:03:55;;;;;;;16.23;2.15;;;8.30;99.90;;;;;;5051777;28;20049;-88
2023/04/11 00:06:22;;;;;;;9.77;2.33;;;8.20;99.90;;;;;;5053871;28;20037;-71
2023/04/11 00:08:48;;;;;;;7.47;1.40;;;8.20;99.90;;;;;;5058224;28;20044;-70
2023/04/11 00:11:14;;;;;;;15.30;1.90;;;8.20;99.90;;;;;;5071184;28;20075;-72
2023/04/11 00:13:40;;;;;;;10.30;1.75;;;8.20;99.90;;;;;;5070765;28;20048;-73
2023/04/11 00:16:07;;;;;;;13.93;2.20;;;8.10;99.90;;;;;;5072286;28;20084;-70
2023/04/11 00:18:35;;;;;;;20.05;2.88;;;8.10;99.90;;;;;;5070506;28;20128;-70
2023/04/11 00:24:42;;;;;;;15.90;1.90;;;8.00;99.90;;;;;;5159474;22;20144;-69
2023/04/11 00:27:07;;;;;;;15.32;2.28;;;8.00;99.90;;;;;;5052006;28;20135;-71
2023/04/11 00:29:34;;;;;;;18.33;2.28;;;7.90;99.90;;;;;;5051361;28;20468;-71
2023/04/11 00:32:00;;;;;;;12.80;2.15;;;7.80;99.90;;;;;;5052486;28;20400;-72
2023/04/11 00:34:26;;;;;;;17.95;3.03;;;7.80;99.90;;;;;;5052347;28;20045;-71
2023/04/11 00:36:52;;;;;;;15.48;2.17;;;7.80;99.90;;;;;;5052390;28;20049;-71
2023/04/11 00:39:19;;;;;;;15.30;2.42;;;7.80;99.90;;;;;;5059405;28;20037;-81
2023/04/11 00:41:45;;;;;;;12.65;2.00;;;7.70;99.90;;;;;;5071793;28;20455;-71
2023/04/11 00:44:12;;;;;;;10.73;2.20;;;7.70;99.90;;;;;;5070391;28;20060;-71
2023/04/11 00:50:20;;;;;;;17.20;2.65;;;7.60;99.90;;;;;;5328615;22;20014;-72
2023/04/11 00:52:48;;;;;;;12.70;2.40;;;7.60;99.90;;;;;;5050658;28;20053;-73
2023/04/11 00:55:14;;;;;;;13.90;2.28;;;7.50;99.90;;;;;;5051564;28;20061;-73
2023/04/11 00:57:41;;;;;;;11.95;2.22;;;7.50;99.90;;;;;;5050158;28;20059;-73
2023/04/11 01:00:09;;;;;;;19.95;3.10;;;7.40;99.90;;;;;;5051659;28;20041;-72
2023/04/11 01:02:36;;;;;;;14.63;2.70;;;7.40;99.90;;;;;;5051633;28;20064;-74
2023/04/11 01:05:04;;;;;;;12.68;2.30;;;7.40;99.90;;;;;;5051369;28;20040;-70
2023/04/11 01:07:30;;;;;;;16.65;2.58;;;7.30;99.90;;;;;;5051693;28;20439;-72
2023/04/11 01:17:00;;;;;;;11.63;2.15;;;7.20;99.90;;;;;;5343869;22;20053;-70
2023/04/11 01:19:26;;;;;;;13.82;3.33;;;7.20;99.90;;;;;;5049971;28;20072;-70
2023/04/11 01:21:54;;;;;;;20.77;2.40;;;7.10;99.90;;;;;;5049942;28;20411;-72
2023/04/11 01:24:20;;;;;;;13.23;1.98;;;7.10;99.90;;;;;;5051152;28;20537;-71
2023/04/11 01:26:46;;;;;;;17.58;2.28;;;7.10;99.90;;;;;;5051233;28;20049;-74
2023/04/11 01:29:11;;;;;;;12.65;2.13;;;7.20;99.90;;;;;;5049636;28;20547;-71
2023/04/11 01:31:37;;;;;;;16.55;2.83;;;7.30;99.90;;;;;;5051191;28;20049;-71
2023/04/11 01:34:03;;;;;;;15.13;1.80;;;7.30;99.90;;;;;;5051171;28;20041;-70
2023/04/11 01:36:31;;;;;;;16.33;2.50;;;7.30;99.90;;;;;;5049817;28;20045;-71
2023/04/11 01:38:57;;;;;;;14.38;2.17;;;7.50;99.90;;;;;;5051012;28;20044;-71
2023/04/11 01:41:25;;;;;;;12.40;2.53;;;7.40;99.90;;;;;;5050668;28;20052;-71
2023/04/11 01:43:51;;;;;;;17.70;4.43;;;7.40;99.90;;;;;;5050787;28;20088;-71
2023/04/11 01:46:16;;;;;;;12.43;3.53;;;7.40;99.90;;;;;;5050854;28;20080;-70
2023/04/11 01:48:44;;;;;;;17.63;4.97;;;7.40;99.90;;;;;;5050678;28;20051;-70
2023/04/11 01:51:10;;;;;;;16.27;3.28;;;7.40;99.90;;;;;;5050412;28;20041;-71
2023/04/11 01:53:35;;;;;;;8.63;2.50;;;7.40;99.90;;;;;;5050546;28;20045;-71
2023/04/11 02:03:01;;;;;;;5.45;1.40;;;7.30;99.90;;;;;;5275712;22;20048;-72
2023/04/11 02:05:26;;;;;;;4.03;1.45;;;7.40;99.90;;;;;;5051776;28;20399;-74
2023/04/11 02:07:52;;;;;;;2.40;0.80;;;7.30;99.90;;;;;;5051964;28;20139;-70
2023/04/11 02:10:17;;;;;;;4.80;1.38;;;7.30;99.90;;;;;;5051117;28;20678;-72
2023/04/11 02:12:43;;;;;;;3.55;1.23;;;7.30;99.90;;;;;;5052286;28;20418;-74
2023/04/11 02:15:09;;;;;;;5.53;1.05;;;7.40;99.90;;;;;;5070267;28;20056;-73
2023/04/11 02:17:35;;;;;;;7.53;1.60;;;7.30;99.90;;;;;;5051963;28;20074;-73
2023/04/11 02:20:03;;;;;;;7.75;2.22;;;7.80;99.90;;;;;;5070147;28;20120;-73
2023/04/11 02:22:29;;;;;;;8.95;1.65;;;7.50;99.90;;;;;;5069852;28;20056;-71
2023/04/11 02:24:55;;;;;;;17.70;5.50;;;7.30;99.90;;;;;;5069628;28;20113;-71
2023/04/11 02:27:21;;;;;;;6.82;1.05;;;7.30;99.90;;;;;;5051715;28;20119;-72
2023/04/11 02:29:46;;;;;;;7.80;0.80;;;7.30;99.90;;;;;;5051892;28;20470;-71
2023/04/11 02:32:12;;;;;;;3.42;1.02;;;7.80;99.90;;;;;;5051823;28;20054;-72
2023/04/11 02:34:38;;;;;;;4.15;0.88;;;7.30;99.90;;;;;;5069984;28;20041;-73
2023/04/11 02:37:03;;;;;;;4.55;1.15;;;7.30;99.90;;;;;;5069746;28;20102;-72
2023/04/11 02:39:29;;;;;;;6.10;1.17;;;7.30;99.90;;;;;;5051710;28;20056;-74
2023/04/11 02:41:56;;;;;;;7.00;1.42;;;7.30;99.90;;;;;;5069778;28;20119;-72
2023/04/11 02:44:21;;;;;;;4.45;1.30;;;7.30;99.90;;;;;;5069857;28;20113;-75
2023/04/11 02:46:47;;;;;;;5.80;1.35;;;7.30;99.90;;;;;;5051728;28;20116;-72
2023/04/11 02:49:12;;;;;;;7.10;0.90;;;7.30;99.90;;;;;;5034516;28;20087;-73
2023/04/11 02:51:38;;;;;;;21.25;6.97;;;7.50;99.90;;;;;;5051742;28;20053;-73
2023/04/11 02:54:05;;;;;;;15.80;5.38;;;7.60;99.90;;;;;;5069527;28;20151;-72
2023/04/11 02:56:31;;;;;;;12.32;3.47;;;7.30;99.90;;;;;;5051899;28;20451;-72
2023/04/11 02:58:57;;;;;;;12.82;4.43;;;7.30;99.90;;;;;;5051263;28;20106;-71
2023/04/11 03:01:23;;;;;;;13.63;3.95;;;7.30;99.90;;;;;;5051966;28;20040;-72
2023/04/11 03:03:49;;;;;;;13.88;5.35;;;7.40;99.90;;;;;;5055511;28;20060;-75
2023/04/11 03:06:15;;;;;;;13.95;4.22;;;7.60;99.90;;;;;;5051865;28;20522;-72
2023/04/11 03:08:41;;;;;;;13.43;4.65;;;7.30;99.90;;;;;;5068923;28;20682;-72
2023/04/11 03:11:06;;;;;;;4.50;1.30;;;7.30;99.90;;;;;;5045338;28;20045;-72
2023/04/11 03:13:32;;;;;;;10.13;1.70;;;7.30;99.90;;;;;;5073324;28;20040;-72
2023/04/11 03:15:58;;;;;;;3.28;0.95;;;7.30;99.90;;;;;;5073588;28;20070;-73
2023/04/11 03:18:24;;;;;;;10.88;1.85;;;7.30;99.90;;;;;;5073732;28;20041;-76
2023/04/11 03:20:51;;;;;;;8.98;1.38;;;7.30;99.90;;;;;;5073853;28;20055;-72
2023/04/11 03:23:16;;;;;;;7.60;1.17;;;7.30;99.90;;;;;;5073699;28;20044;-85
2023/04/11 03:25:43;;;;;;;10.90;1.50;;;7.20;99.90;;;;;;5073843;28;20434;-86
2023/04/11 03:28:09;;;;;;;4.45;1.45;;;7.30;99.90;;;;;;5073493;28;20055;-82
2023/04/11 03:30:39;;;;;;;6.55;1.33;;;7.30;99.90;;;;;;5073838;28;20097;-80
2023/04/11 03:33:06;;;;;;;10.70;2.03;;;7.30;99.90;;;;;;5074553;28;20032;-82
2023/04/11 03:35:32;;;;;;;9.93;1.45;;;7.30;99.90;;;;;;5056143;28;20125;-73
2023/04/11 03:37:58;;;;;;;13.63;2.78;;;7.30;99.90;;;;;;5072437;28;20127;-72
2023/04/11 03:40:24;;;;;;;13.43;3.80;;;7.30;99.90;;;;;;5072551;28;20119;-72
2023/04/11 03:42:49;;;;;;;10.02;2.50;;;7.30;99.90;;;;;;5054990;28;20055;-71
2023/04/11 03:45:16;;;;;;;15.88;4.07;;;7.30;99.90;;;;;;5055430;28;20095;-71
2023/04/11 03:47:41;;;;;;;13.23;3.88;;;7.40;99.90;;;;;;5073304;28;20122;-72
2023/04/11 03:50:07;;;;;;;18.52;6.00;;;7.40;99.90;;;;;;5073000;28;20040;-74
2023/04/11 03:52:34;;;;;;;14.23;3.55;;;7.50;99.90;;;;;;5055423;28;20554;-71
2023/04/11 03:55:00;;;;;;;14.98;4.40;;;7.50;99.90;;;;;;5072665;28;20402;-76
2023/04/11 03:57:26;;;;;;;7.88;2.80;;;7.50;99.90;;;;;;5073374;28;20044;-71
2023/04/11 03:59:55;;;;;;;11.95;2.25;;;7.60;99.90;;;;;;5055191;28;20060;-72
2023/04/11 04:02:21;;;;;;;11.27;1.98;;;7.60;99.90;;;;;;5072826;28;20836;-72
2023/04/11 04:04:53;;;;;;;11.05;2.35;;;8.00;99.90;;;;;;5055190;28;20139;-77
2023/04/11 04:07:21;;;;;;;16.48;2.20;;;7.60;99.90;;;;;;5073151;28;20048;-72
2023/04/11 04:09:47;;;;;;;7.70;1.63;;;7.60;99.90;;;;;;5072213;28;20048;-79
2023/04/11 04:12:12;;;;;;;10.60;2.00;;;7.90;99.90;;;;;;5072803;28;20036;-73
2023/04/11 04:14:38;;;;;;;16.13;2.95;;;7.60;99.90;;;;;;5072391;28;20529;-73
2023/04/11 04:17:04;;;;;;;11.10;2.55;;;7.60;99.90;;;;;;5072618;28;20041;-72
2023/04/11 04:19:29;;;;;;;13.43;3.45;;;7.60;99.90;;;;;;5054510;28;20109;-74
2023/04/11 04:21:57;;;;;;;11.25;3.80;;;7.60;99.90;;;;;;5072198;28;20079;-72
2023/04/11 04:24:24;;;;;;;16.58;2.55;;;7.60;99.90;;;;;;5037189;28;20226;-74
2023/04/11 04:26:51;;;;;;;10.70;3.63;;;8.00;99.90;;;;;;5054405;28;20051;-73
2023/04/11 04:29:17;;;;;;;9.88;2.15;;;7.60;99.90;;;;;;5054338;28;20523;-72
2023/04/11 04:31:43;;;;;;;8.80;2.05;;;7.90;99.90;;;;;;5072431;28;20128;-77
2023/04/11 04:34:09;;;;;;;13.90;2.15;;;7.60;99.90;;;;;;5072271;28;20055;-73
2023/04/11 04:36:46;;;;;;;6.60;2.25;;;7.60;99.90;;;;;;5072234;28;20111;-73
2023/04/11 04:39:18;;;;;;;16.35;2.63;;;7.60;99.90;;;;;;5071413;28;20044;-73
2023/04/11 04:41:47;;;;;;;12.52;3.25;;;7.50;99.90;;;;;;5054262;28;20491;-72
2023/04/11 04:44:16;;;;;;;14.35;2.70;;;7.60;99.90;;;;;;5072001;28;20051;-73
2023/04/11 04:46:42;;;;;;;13.63;2.80;;;7.60;99.90;;;;;;5072312;28;20087;-72
2023/04/11 04:49:07;;;;;;;8.55;1.90;;;7.50;99.90;;;;;;5072067;28;20503;-73
2023/04/11 04:51:34;;;;;;;11.18;2.33;;;7.40;99.90;;;;;;5053679;28;20127;-73
2023/04/11 04:54:00;;;;;;;16.67;3.28;;;7.40;99.90;;;;;;5071818;28;20044;-72
2023/04/11 04:56:29;;;;;;;19.95;4.05;;;7.40;99.90;;;;;;5054112;28;20090;-72
2023/04/11 04:58:55;;;;;;;14.18;3.75;;;7.40;99.90;;;;;;5053627;28;20044;-72
2023/04/11 05:01:25;;;;;;;22.73;4.05;;;7.30;99.90;;;;;;5053640;28;20040;-71
2023/04/11 05:04:00;;;;;;;16.15;3.33;;;7.30;99.90;;;;;;5071661;28;20139;-71
2023/04/11 05:06:30;;;;;;;18.38;4.20;;;7.40;99.90;;;;;;5071650;28;20040;-72
2023/04/11 05:08:57;;;;;;;14.48;3.83;;;7.30;99.90;;;;;;5036828;28;20057;-72
2023/04/11 05:11:23;;;;;;;21.77;4.38;;;7.30;99.90;;;;;;5071158;28;20055;-74
2023/04/11 05:13:49;;;;;;;12.10;3.33;;;7.30;99.90;;;;;;5070691;28;20049;-73
2023/04/11 05:16:16;;;;;;;16.08;4.10;;;7.30;99.90;;;;;;5053232;28;20105;-72
2023/04/11 05:18:42;;;;;;;13.00;3.92;;;7.30;99.90;;;;;;5053532;28;20048;-72
2023/04/11 05:21:08;;;;;;;17.08;3.80;;;7.30;99.90;;;;;;5071363;28;20123;-71
2023/04/11 05:23:34;;;;;;;13.85;3.00;;;7.30;99.90;;;;;;5053301;28;20171;-71
2023/04/11 05:26:00;;;;;;;12.90;3.33;;;7.30;99.90;;;;;;5070946;28;20045;-71
2023/04/11 05:28:26;;;;;;;18.92;3.83;;;7.30;99.90;;;;;;5053543;28;20491;-72
2023/04/11 05:30:52;;;;;;;18.38;4.28;;;7.50;99.90;;;;;;5053591;28;20056;-71
2023/04/11 05:33:17;;;;;;;15.75;4.40;;;7.40;99.90;;;;;;5071291;28;20037;-72
2023/04/11 05:35:43;;;;;;;14.90;2.65;;;7.40;99.90;;;;;;5053143;28;20479;-71
2023/04/11 05:38:09;;;;;;;15.18;2.67;;;7.80;99.90;;;;;;5071358;28;20036;-71
2023/04/11 05:40:35;;;;;;;16.15;3.55;;;7.40;99.90;;;;;;5052265;28;20052;-72
2023/04/11 05:43:01;;;;;;;16.17;3.25;;;7.40;99.90;;;;;;5053568;28;20826;-81
2023/04/11 05:45:27;;;;;;;13.13;3.60;;;7.50;99.90;;;;;;5071280;28;20052;-73
2023/04/11 05:47:53;;;;;;;11.90;3.45;;;7.50;99.90;;;;;;5071587;28;20044;-78
2023/04/11 05:50:19;;;;;;;10.05;2.53;;;7.50;99.90;;;;;;5053359;28;20495;-72
2023/04/11 05:52:44;;;;;;;13.40;2.08;;;7.50;99.90;;;;;;5054266;28;20810;-80
2023/04/11 05:55:10;;;;;;;14.32;3.90;;;7.50;99.90;;;;;;5071494;28;20459;-80
2023/04/11 05:57:36;;;;;;;10.10;1.75;;;7.50;99.90;;;;;;5071423;28;20056;-73
2023/04/11 06:00:11;;;;;;;17.50;2.55;;;7.80;99.90;;;;;;5070888;28;20444;-74
2023/04/11 06:02:37;;;;;;;11.23;2.35;;;7.50;99.90;;;;;;5071909;28;20482;-72
2023/04/11 06:05:03;;;;;;;14.70;2.63;;;7.60;99.90;;;;;;5071851;28;20047;-78
2023/04/11 06:07:31;;;;;;;11.27;2.30;;;7.50;99.90;;;;;;5071944;28;20041;-87
2023/04/11 06:09:57;;;;;;;14.82;2.28;;;7.60;99.90;;;;;;5071681;28;20364;-72
2023/04/11 06:12:22;;;;;;;14.75;2.05;;;7.70;99.90;;;;;;5054174;28;20123;-74
2023/04/11 06:14:48;;;;;;;12.55;2.00;;;7.60;99.90;;;;;;5070995;28;20041;-80
2023/04/11 06:17:14;;;;;;;10.07;1.80;;;7.60;99.90;;;;;;5052982;28;20056;-79
2023/04/11 06:19:40;;;;;;;10.02;2.38;;;7.70;99.90;;;;;;5070614;28;20406;-71
2023/04/11 06:22:06;;;;;;;9.95;2.30;;;7.70;99.90;;;;;;5070430;28;20127;-72
2023/04/11 06:24:38;;;;;;;10.75;2.38;;;8.10;99.90;;;;;;5070515;28;20041;-77
2023/04/11 06:27:05;;;;;;;10.60;2.15;;;7.80;99.90;;;;;;5069907;28;20036;-71
2023/04/11 06:29:31;;;;;;;13.75;2.67;;;7.90;99.90;;;;;;5052338;28;20361;-73
2023/04/11 06:31:57;;;;;;;11.90;2.22;;;7.80;99.90;;;;;;5069857;28;20070;-71
2023/04/11 06:34:23;;;;;;;13.23;2.40;;;7.80;99.90;;;;;;5070193;28;20040;-77
2023/04/11 06:36:48;;;;;;;15.77;2.28;;;7.80;99.90;;;;;;5051530;28;20383;-72
2023/04/11 06:39:18;;;;;;;9.57;2.05;;;7.80;99.90;;;;;;5070583;28;20120;-74
2023/04/11 06:41:45;;;;;;;15.98;2.35;;;7.80;99.90;;;;;;5070110;28;20402;-71
2023/04/11 06:44:11;;;;;;;17.80;2.95;;;8.10;99.90;;;;;;5052183;28;20070;-72
2023/04/11 06:46:37;;;;;;;13.90;2.50;;;8.10;99.90;;;;;;5069821;28;20056;-72
2023/04/11 06:49:06;;;;;;;14.07;2.25;;;7.80;99.90;;;;;;5070071;28;20395;-73
2023/04/11 06:51:32;;;;;;;12.75;2.75;;;7.90;99.90;;;;;;5069669;28;20044;-72
2023/04/11 06:53:58;;;;;;;14.95;2.08;;;8.40;99.90;;;;;;5070075;28;20120;-73
2023/04/11 06:56:23;;;;;;;11.32;2.10;;;7.90;99.90;;;;;;5052101;28;20124;-72
2023/04/11 06:58:49;;;;;;;14.52;1.80;;;7.80;99.90;;;;;;5052078;28;20462;-71
2023/04/11 07:01:15;;;;;;;12.25;2.22;;;7.60;99.90;;;;;;5069493;28;20444;-71
2023/04/11 07:03:40;;;;;;;10.98;2.00;;;7.60;99.90;;;;;;5069886;28;20055;-72
2023/04/11 07:06:06;;;;;;;15.75;2.50;;;7.50;99.90;;;;;;5051786;28;20101;-72
2023/04/11 07:08:32;;;;;;;10.45;2.72;;;7.50;99.90;;;;;;5069879;28;20051;-72
2023/04/11 07:10:58;;;;;;;14.05;2.45;;;7.60;99.90;;;;;;5069658;28;20500;-72
2023/04/11 07:13:23;;;;;;;12.27;2.28;;;7.90;99.90;;;;;;5069550;28;20037;-72
2023/04/11 07:15:49;;;;;;;7.80;1.45;;;7.60;99.90;;;;;;5069424;28;20494;-71
2023/04/11 07:18:15;;;;;;;12.20;2.20;;;7.40;99.90;;;;;;5069699;28;20387;-72
2023/04/11 07:20:41;;;;;;;15.90;2.58;;;7.40;99.90;;;;;;5069375;28;20039;-72
2023/04/11 07:23:06;;;;;;;12.38;2.80;;;7.40;99.90;;;;;;5051218;28;20048;-72
2023/04/11 07:25:32;;;;;;;17.10;2.03;;;7.50;99.90;;;;;;5067911;28;20048;-71
2023/04/11 07:28:07;;;;;;;13.63;2.13;;;7.70;99.90;;;;;;5051210;28;20120;-73
2023/04/11 07:30:34;;;;;;;11.38;1.70;;;7.40;99.90;;;;;;5069472;28;20878;-72
2023/04/11 07:33:00;;;;;;;16.52;1.95;;;7.90;99.90;;;;;;5051270;28;20056;-74
2023/04/11 07:35:27;;;;;;;12.52;2.17;;;8.00;99.90;;;;;;5069442;28;20048;-73
2023/04/11 07:37:53;;;;;;;17.20;2.90;;;8.00;99.90;;;;;;5069431;28;20499;-74
2023/04/11 07:40:19;;;;;;;12.63;2.30;;;8.10;99.90;;;;;;5051480;28;20063;-75
2023/04/11 07:42:45;;;;;;;12.45;1.95;;;8.40;99.90;;;;;;5069361;28;20037;-73
2023/04/11 07:45:11;;;;;;;21.98;2.97;;;8.30;99.90;;;;;;5069343;28;20068;-71
2023/04/11 07:47:37;;;;;;;17.30;2.15;;;8.40;99.90;;;;;;5051663;28;20045;-76
2023/04/11 07:50:03;;;;;;;12.25;1.67;;;8.60;99.90;;;;;;5073042;28;20041;-72
2023/04/11 07:52:29;;;;;;;12.60;2.00;;;8.50;99.90;;;;;;5072932;28;20067;-73
2023/04/11 07:54:55;;;;;;;15.15;2.25;;;8.40;99.90;;;;;;5055035;28;20044;-73
2023/04/11 07:57:20;;;;;;;19.42;2.10;;;8.40;99.90;;;;;;5054878;28;20487;-75
2023/04/11 07:59:46;;;;;;;11.18;1.98;;;8.40;99.90;;;;;;5073085;28;20036;-73
2023/04/11 08:02:12;;;;;;;13.90;2.10;;;8.40;99.90;;;;;;5073072;28;20036;-73
2023/04/11 08:04:37;;;;;;;15.93;1.98;;;8.50;99.90;;;;;;5072971;28;20052;-73
2023/04/11 08:07:03;;;;;;;13.88;1.85;;;9.10;99.90;;;;;;5072498;28;20036;-73
2023/04/11 08:09:29;;;;;;;12.70;2.13;;;8.50;99.90;;;;;;5073524;28;20227;-76
2023/04/11 08:11:58;;;;;;;18.42;3.15;;;8.70;99.90;;;;;;5055015;28;20109;-74
2023/04/11 08:14:23;;;;;;;17.15;2.10;;;8.80;99.90;;;;;;5073309;28;20041;-75
2023/04/11 08:16:51;;;;;;;10.43;1.80;;;8.80;99.90;;;;;;5073004;28;20110;-75
2023/04/11 08:19:17;;;;;;;6.28;1.67;;;9.30;99.90;;;;;;5072143;28;20093;-75
2023/04/11 08:21:43;;;;;;;12.70;2.10;;;9.30;99.90;;;;;;5054400;28;20041;-75
2023/04/11 08:24:09;;;;;;;9.10;1.90;;;9.30;99.90;;;;;;5073274;28;20045;-72
2023/04/11 08:26:35;;;;;;;8.60;1.25;;;9.40;99.90;;;;;;5073072;28;20113;-71
2023/04/11 08:29:00;;;;;;;12.68;1.60;;;9.30;99.90;;;;;;5072898;28;20503;-75
2023/04/11 08:31:27;;;;;;;13.20;1.70;;;9.70;99.90;;;;;;5073057;28;20032;-75
2023/04/11 08:33:53;;;;;;;9.00;1.55;;;9.80;99.90;;;;;;5071945;28;20045;-73
2023/04/11 08:36:18;;;;;;;10.98;1.80;;;9.30;99.90;;;;;;5072492;28;20082;-74
2023/04/11 08:38:44;;;;;;;11.48;1.88;;;9.90;99.90;;;;;;5054533;28;20052;-74
2023/04/11 08:41:11;;;;;;;11.70;1.92;;;9.80;99.90;;;;;;5072938;28;20057;-77
2023/04/11 08:43:38;;;;;;;9.35;1.60;;;9.80;99.90;;;;;;5072479;28;20048;-74
2023/04/11 08:46:08;;;;;;;12.57;2.28;;;9.90;99.90;;;;;;5055014;28;20430;-81
2023/04/11 08:48:34;;;;;;;12.65;2.75;;;9.80;99.90;;;;;;5071910;28;20078;-74
2023/04/11 08:51:00;;;;;;;7.75;1.10;;;10.00;99.90;;;;;;5072314;28;20448;-74
2023/04/11 08:53:27;;;;;;;10.82;1.48;;;9.00;99.90;;;;;;5054494;28;20135;-78
2023/04/11 08:55:53;;;;;;;10.40;1.98;;;8.80;99.90;;;;;;5054548;28;20049;-87
2023/04/11 08:58:19;;;;;;;15.48;1.80;;;9.30;99.90;;;;;;5072528;28;20048;-73
2023/04/11 09:00:45;;;;;;;9.80;1.63;;;8.60;99.90;;;;;;5071751;28;20060;-76
2023/04/11 09:03:14;;;;;;;10.15;1.88;;;8.50;99.90;;;;;;5053680;28;20484;-78
2023/04/11 09:05:47;;;;;;;10.30;1.63;;;8.60;99.90;;;;;;5053907;28;20558;-74
2023/04/11 09:08:15;;;;;;;12.45;1.80;;;8.90;99.90;;;;;;5054338;28;20044;-82
2023/04/11 09:10:46;;;;;;;10.32;1.67;;;9.60;99.90;;;;;;5072614;28;20037;-83
2023/04/11 09:13:27;;;;;;;6.15;1.08;;;9.30;99.90;;;;;;5073255;28;20088;-72
2023/04/11 09:16:04;;;;;;;8.57;1.10;;;8.90;99.90;;;;;;5072482;28;20049;-82
2023/04/11 09:18:41;;;;;;;7.43;1.40;;;8.70;99.90;;;;;;5070286;28;20123;-83
2023/04/11 09:21:12;;;;;;;8.32;1.50;;;8.60;99.90;;;;;;5072053;28;20059;-78
2023/04/11 09:23:38;;;;;;;11.48;1.50;;;8.60;99.90;;;;;;5052432;28;20052;-80
2023/04/11 09:26:09;;;;;;;19.95;2.25;;;9.20;99.90;;;;;;5053785;28;20044;-75
2023/04/11 09:28:42;;;;;;;9.85;2.28;;;8.60;99.90;;;;;;5071761;28;20044;-78
2023/04/11 09:31:09;;;;;;;11.25;2.13;;;8.80;99.90;;;;;;5071832;28;20148;-75
2023/04/11 09:33:34;;;;;;;10.02;1.75;;;8.30;99.90;;;;;;5054168;28;20045;-75
2023/04/11 09:36:01;;;;;;;10.25;2.50;;;8.80;99.90;;;;;;5053623;28;20166;-79
2023/04/11 09:38:35;;;;;;;16.40;1.90;;;8.60;99.90;;;;;;5054001;28;20486;-74
2023/04/11 09:41:02;;;;;;;19.20;1.92;;;9.60;99.90;;;;;;5071953;28;20457;-74
2023/04/11 09:43:47;;;;;;;13.00;2.20;;;9.80;99.90;;;;;;5071577;28;20075;-74
2023/04/11 09:46:17;;;;;;;6.53;1.20;;;9.50;99.90;;;;;;5053432;28;20088;-75
2023/04/11 09:48:43;;;;;;;7.28;1.30;;;10.20;99.90;;;;;;5070430;28;20387;-73
2023/04/11 09:51:09;;;;;;;14.45;1.33;;;9.90;99.90;;;;;;5053338;28;20049;-76
2023/04/11 09:53:36;;;;;;;7.30;1.30;;;9.80;99.90;;;;;;5071787;28;20109;-74
2023/04/11 09:56:03;;;;;;;12.15;1.98;;;9.30;99.90;;;;;;5070951;28;20071;-71
2023/04/11 09:58:31;;;;;;;13.23;1.38;;;9.20;99.90;;;;;;5052707;28;20052;-72
2023/04/11 10:00:58;;;;;;;13.70;2.03;;;9.60;99.90;;;;;;5071489;28;20513;-72
2023/04/11 10:03:25;;;;;;;12.27;1.60;;;10.30;99.90;;;;;;5071035;28;20057;-73
2023/04/11 10:05:54;;;;;;;17.50;2.63;;;10.30;99.90;;;;;;5071017;28;20101;-74
2023/04/11 10:08:32;;;;;;;12.95;1.90;;;9.80;99.90;;;;;;5053247;28;20049;-72
2023/04/11 10:11:02;;;;;;;12.40;2.30;;;9.70;99.90;;;;;;5052849;28;20108;-72
2023/04/11 10:13:34;;;;;;;10.80;1.73;;;9.40;99.90;;;;;;5071315;28;20044;-73
2023/04/11 10:16:08;;;;;;;8.18;1.45;;;9.70;99.90;;;;;;5052378;28;20091;-73
2023/04/11 10:18:35;;;;;;;11.93;1.57;;;9.20;99.90;;;;;;5060738;28;20152;-73
2023/04/11 10:21:00;;;;;;;11.77;1.67;;;8.80;99.90;;;;;;5072106;28;20286;-75
2023/04/11 10:23:26;;;;;;;4.30;1.08;;;8.30;99.90;;;;;;5052411;28;20185;-75
2023/04/11 10:25:59;;;;;;;6.10;0.73;;;8.00;99.90;;;;;;5070529;28;20036;-76
2023/04/11 10:28:37;;;;;;;6.47;0.90;;;7.80;99.90;;;;;;5071021;28;20055;-72
2023/04/11 10:31:07;;;;;;;5.82;0.98;;;6.90;99.90;;;;;;5052564;28;20056;-74
2023/04/11 10:33:34;;;;;;;8.73;1.00;;;6.70;99.90;;;;;;5070667;28;20094;-73
2023/04/11 10:36:04;;;;;;;8.15;1.10;;;6.50;99.90;;;;;;5052821;28;20084;-73
2023/04/11 10:38:39;;;;;;;3.63;0.95;;;6.50;99.90;;;;;;5069280;28;20060;-73
2023/04/11 10:41:26;;;;;;;4.22;0.95;;;6.40;99.90;;;;;;5070600;28;20131;-81
2023/04/11 10:44:17;;;;;;;6.30;0.95;;;6.40;99.90;;;;;;5070631;28;20403;-79
2023/04/11 10:46:54;;;;;;;5.38;0.82;;;6.40;99.90;;;;;;5070528;28;20677;-81
2023/04/11 10:49:37;;;;;;;12.70;1.40;;;6.50;99.90;;;;;;5070311;28;20044;-76
2023/04/11 10:52:16;;;;;;;6.15;1.27;;;6.50;99.90;;;;;;5070350;28;20041;-81
2023/04/11 10:54:43;;;;;;;7.32;1.38;;;6.50;99.90;;;;;;5070261;28;20045;-79
2023/04/11 10:57:09;;;;;;;3.38;0.73;;;6.40;99.90;;;;;;5052755;28;20063;-89
2023/04/11 10:59:37;;;;;;;1.98;0.63;;;6.40;99.90;;;;;;5070789;28;20060;-74
2023/04/11 11:02:03;;;;;;;4.78;0.77;;;6.30;99.90;;;;;;5070396;28;20062;-75
2023/04/11 11:04:32;;;;;;;7.18;1.10;;;6.20;99.90;;;;;;5070188;28;20503;-86
2023/04/11 11:07:03;;;;;;;3.67;0.90;;;6.20;99.90;;;;;;5052064;28;20127;-83
2023/04/11 11:09:30;;;;;;;9.43;1.02;;;6.20;99.90;;;;;;5052582;28;20056;-80
2023/04/11 11:12:10;;;;;;;6.10;1.30;;;6.10;99.90;;;;;;5069813;28;20071;-77
2023/04/11 11:14:40;;;;;;;7.00;1.10;;;6.10;99.90;;;;;;5070475;28;20471;-79
2023/04/11 11:17:06;;;;;;;9.15;1.02;;;6.20;99.90;;;;;;5070166;28;20122;-81
2023/04/11 11:19:32;;;;;;;8.95;2.10;;;6.80;99.90;;;;;;5069833;28;20052;-81
2023/04/11 11:22:02;;;;;;;8.48;1.30;;;7.40;99.90;;;;;;5070027;28;20506;-80
2023/04/11 11:24:28;;;;;;;5.97;1.30;;;7.00;99.90;;;;;;5055999;28;20057;-79
2023/04/11 11:26:54;;;;;;;8.73;1.38;;;7.10;99.90;;;;;;5056363;28;20067;-85
2023/04/11 11:29:32;;;;;;;10.15;1.63;;;7.10;99.90;;;;;;5056683;28;20061;-84
2023/04/11 11:32:00;;;;;;;11.38;1.55;;;7.10;99.90;;;;;;5055919;28;20052;-78
2023/04/11 11:34:31;;;;;;;13.73;1.88;;;7.10;99.90;;;;;;5074122;28;20116;-79
2023/04/11 11:36:58;;;;;;;8.95;1.15;;;7.10;99.90;;;;;;5073761;28;20560;-81
2023/04/11 11:39:24;;;;;;;5.78;1.00;;;7.20;99.90;;;;;;5073515;28;20032;-80
2023/04/11 11:41:52;;;;;;;6.40;1.00;;;7.10;99.90;;;;;;5074126;28;20094;-84
2023/04/11 11:44:26;;;;;;;14.98;1.95;;;7.10;99.90;;;;;;5074479;28;20100;-79
2023/04/11 11:47:04;;;;;;;9.05;1.67;;;7.00;99.90;;;;;;5074314;28;20193;-82
2023/04/11 11:49:47;;;;;;;8.82;1.98;;;7.10;99.90;;;;;;5073661;28;20059;-73
2023/04/11 11:52:31;;;;;;;19.48;1.63;;;7.30;99.90;;;;;;5072671;28;20048;-73
2023/04/11 11:54:57;;;;;;;10.43;2.22;;;8.00;99.90;;;;;;5063111;28;20052;-72
2023/04/11 11:57:22;;;;;;;15.23;2.25;;;7.90;99.90;;;;;;5055463;28;20407;-83
2023/04/11 11:59:56;;;;;;;13.13;1.98;;;8.40;99.90;;;;;;5073722;28;20456;-77
2023/04/11 12:02:26;;;;;;;17.35;2.38;;;8.60;99.90;;;;;;5055316;28;20145;-77
2023/04/11 12:04:59;;;;;;;15.73;2.35;;;8.90;99.90;;;;;;5073895;28;20052;-76
2023/04/11 12:07:25;;;;;;;11.13;1.67;;;8.90;99.90;;;;;;5055577;28;20060;-73
2023/04/11 12:10:08;;;;;;;14.30;2.00;;;9.10;99.90;;;;;;5073663;28;20044;-73
2023/04/11 12:12:47;;;;;;;16.70;2.60;;;9.40;99.90;;;;;;5073195;28;20044;-73
2023/04/11 12:15:15;;;;;;;14.93;2.40;;;9.80;99.90;;;;;;5073476;28;20804;-73
2023/04/11 12:17:40;;;;;;;9.18;1.50;;;10.10;99.90;;;;;;5073498;28;20052;-72
2023/04/11 12:20:09;;;;;;;12.98;2.20;;;10.30;99.90;;;;;;5055041;28;20048;-76
2023/04/11 12:22:38;;;;;;;13.40;2.30;;;10.20;99.90;;;;;;5070952;28;20543;-74
2023/04/11 12:25:12;;;;;;;14.30;2.20;;;10.20;99.90;;;;;;5072219;28;20052;-81
2023/04/11 12:27:39;;;;;;;13.13;1.80;;;10.10;99.90;;;;;;5054653;28;20037;-75
2023/04/11 12:30:05;;;;;;;18.92;1.92;;;10.70;99.90;;;;;;5054714;28;20044;-82
2023/04/11 12:32:34;;;;;;;10.05;2.20;;;10.50;99.90;;;;;;5073956;28;20067;-88
2023/04/11 12:35:04;;;;;;;13.50;2.08;;;10.30;99.90;;;;;;5072428;28;20124;-86
2023/04/11 12:37:31;;;;;;;18.48;2.10;;;10.10;99.90;;;;;;5054914;28;20170;-82
2023/04/11 12:39:56;;;;;;;10.73;1.95;;;10.80;99.90;;;;;;5072649;28;20049;-81
2023/04/11 12:42:22;;;;;;;15.05;1.73;;;10.00;99.90;;;;;;5073344;28;20056;-74
2023/04/11 12:44:49;;;;;;;7.10;1.67;;;10.00;99.90;;;;;;5072063;28;20056;-76
2023/04/11 12:47:14;;;;;;;12.13;1.95;;;10.30;99.90;;;;;;5054144;28;20044;-77
2023/04/11 12:49:40;;;;;;;14.55;2.55;;;11.00;99.90;;;;;;5071756;28;20460;-74
2023/04/11 12:52:06;;;;;;;12.57;2.00;;;10.70;99.90;;;;;;5072064;28;20040;-73
2023/04/11 12:54:32;;;;;;;8.35;1.45;;;11.30;99.90;;;;;;5053913;28;20044;-73
2023/04/11 12:56:58;;;;;;;13.77;2.25;;;11.30;99.90;;;;;;5071757;28;20045;-72
2023/04/11 12:59:28;;;;;;;13.48;2.50;;;11.30;99.90;;;;;;5037312;28;20048;-73
2023/04/11 13:01:54;;;;;;;10.93;2.08;;;10.70;99.90;;;;;;5072071;28;20166;-73
2023/04/11 13:04:20;;;;;;;15.35;2.53;;;10.40;99.90;;;;;;5071778;28;20086;-73
2023/04/11 13:06:51;;;;;;;9.98;1.70;;;10.30;99.90;;;;;;5071533;28;20044;-74
2023/04/11 13:09:17;;;;;;;9.32;1.88;;;10.40;99.90;;;;;;5053206;28;20045;-74
2023/04/11 13:11:42;;;;;;;15.38;2.13;;;11.30;99.90;;;;;;5071377;28;20044;-75